createdAt,value
2022-12-18T00:21:34.374Z,10.55
2022-12-18T00:24:01.552Z,12.20
2022-12-18T00:27:18.207Z,11.00
2022-12-18T00:29:45.896Z,11.35
2022-12-18T00:32:13.000Z,11.38
2022-12-18T00:34:39.881Z,10.43
2022-12-18T00:37:06.730Z,9.55
2022-12-18T00:39:33.601Z,10.52
2022-12-18T00:42:18.940Z,11.05
2022-12-18T00:44:45.768Z,10.40
2022-12-18T00:47:13.462Z,10.30
2022-12-18T00:49:40.296Z,10.15
2022-12-18T00:52:07.158Z,9.88
2022-12-18T00:54:34.017Z,11.68
2022-12-18T00:57:00.931Z,10.40
2022-12-18T00:59:27.784Z,10.98
2022-12-18T01:01:54.788Z,11.02
2022-12-18T01:04:21.835Z,10.98
2022-12-18T01:06:48.733Z,11.07
2022-12-18T01:09:16.080Z,10.95
2022-12-18T01:11:42.953Z,10.60
2022-12-18T01:14:11.403Z,9.95
2022-12-18T01:16:38.285Z,11.07
2022-12-18T01:19:05.280Z,9.68
2022-12-18T01:21:32.269Z,10.23
2022-12-18T01:24:04.107Z,9.82
2022-12-18T01:26:31.120Z,10.00
2022-12-18T01:28:58.404Z,10.48
2022-12-18T01:31:31.648Z,10.20
2022-12-18T01:34:02.350Z,9.48
2022-12-18T01:36:34.825Z,9.98
2022-12-18T01:39:04.282Z,9.30
2022-12-18T01:41:52.822Z,10.73
2022-12-18T01:44:58.703Z,10.05
2022-12-18T01:47:59.011Z,9.05
2022-12-18T01:50:34.947Z,9.45
2022-12-18T01:53:20.146Z,10.65
2022-12-18T01:55:53.600Z,9.50
2022-12-18T01:58:28.935Z,9.77
2022-12-18T02:00:56.413Z,10.15
2022-12-18T02:03:23.339Z,10.32
2022-12-18T02:06:22.453Z,8.80
2022-12-18T02:09:14.959Z,10.50
2022-12-18T02:11:48.722Z,9.70
2022-12-18T02:14:24.669Z,9.50
2022-12-18T02:17:15.891Z,9.90
2022-12-18T02:19:51.861Z,10.02
2022-12-18T02:22:27.805Z,7.97
2022-12-18T02:25:07.111Z,9.43
2022-12-18T02:27:37.953Z,8.40
2022-12-18T02:30:06.955Z,8.88
2022-12-18T02:32:39.733Z,8.13
2022-12-18T02:35:09.648Z,8.43
2022-12-18T02:37:40.038Z,7.55
2022-12-18T02:40:09.446Z,7.68
2022-12-18T02:42:37.932Z,7.00
2022-12-18T02:45:08.383Z,7.90
2022-12-18T02:47:41.679Z,6.72
2022-12-18T02:50:25.215Z,7.30
2022-12-18T02:53:08.062Z,7.63
2022-12-18T02:55:41.008Z,8.13
2022-12-18T02:58:17.074Z,7.60
2022-12-18T03:01:03.080Z,8.07
2022-12-18T03:03:37.554Z,7.65
2022-12-18T03:06:30.493Z,7.10
2022-12-18T03:09:15.874Z,7.25
2022-12-18T03:12:08.515Z,7.53
2022-12-18T03:14:38.986Z,7.97
2022-12-18T03:17:18.942Z,6.72
2022-12-18T03:19:48.055Z,7.45
2022-12-18T03:22:17.241Z,6.68
2022-12-18T03:24:50.069Z,7.75
2022-12-18T03:27:21.184Z,7.50
2022-12-18T03:29:56.661Z,7.35
2022-12-18T03:32:32.014Z,6.95
2022-12-18T03:35:04.326Z,7.20
2022-12-18T03:37:34.859Z,7.10
2022-12-18T03:40:02.171Z,7.80
2022-12-18T03:43:01.062Z,7.82
2022-12-18T03:45:35.857Z,6.75
2022-12-18T03:48:38.822Z,7.80
2022-12-18T03:51:19.467Z,7.72
2022-12-18T03:53:46.327Z,7.78
2022-12-18T03:56:16.399Z,7.80
2022-12-18T03:58:45.528Z,7.55
2022-12-18T04:01:33.834Z,7.53
2022-12-18T04:04:03.109Z,7.80
2022-12-18T04:06:37.133Z,7.95
2022-12-18T04:09:05.880Z,7.72
2022-12-18T04:11:36.803Z,7.38
2022-12-18T04:14:07.464Z,9.27
2022-12-18T04:16:35.134Z,7.53
2022-12-18T04:19:04.807Z,8.02
2022-12-18T04:21:38.016Z,7.72
2022-12-18T04:24:05.993Z,8.75
2022-12-18T04:26:34.758Z,8.27
2022-12-18T04:31:39.490Z,7.32
2022-12-18T04:34:06.305Z,7.85
2022-12-18T04:36:39.137Z,8.35
2022-12-18T04:39:06.082Z,6.82
2022-12-18T04:41:33.326Z,7.07
2022-12-18T04:44:00.560Z,7.50
2022-12-18T04:46:27.863Z,5.93
2022-12-18T04:48:54.748Z,7.75
2022-12-18T04:51:26.368Z,6.78
2022-12-18T04:53:54.594Z,5.88
2022-12-18T04:56:21.450Z,5.65
2022-12-18T04:58:48.413Z,5.85
2022-12-18T05:01:17.108Z,5.55
2022-12-18T05:03:45.071Z,6.10
2022-12-18T05:06:12.260Z,6.30
2022-12-18T05:08:39.132Z,7.97
2022-12-18T05:11:08.735Z,7.32
2022-12-18T05:13:37.091Z,7.63
2022-12-18T05:16:04.957Z,7.55
2022-12-18T05:18:32.544Z,7.72
2022-12-18T05:20:59.464Z,7.22
2022-12-18T05:23:26.722Z,8.13
2022-12-18T05:25:59.083Z,7.80
2022-12-18T05:28:28.212Z,8.05
2022-12-18T05:30:57.733Z,7.22
2022-12-18T05:33:26.060Z,7.70
2022-12-18T05:36:03.863Z,7.90
2022-12-18T05:38:32.686Z,8.23
2022-12-18T05:40:59.811Z,9.25
2022-12-18T05:43:27.671Z,7.90
2022-12-18T05:45:55.141Z,8.73
2022-12-18T05:48:22.717Z,8.82
2022-12-18T05:50:51.377Z,8.75
2022-12-18T05:53:21.155Z,8.90
2022-12-18T05:55:48.641Z,9.23
2022-12-18T05:58:16.229Z,9.32
2022-12-18T06:00:46.510Z,9.93
2022-12-18T06:03:14.781Z,9.80
2022-12-18T06:05:46.198Z,9.27
2022-12-18T06:08:14.296Z,8.27
2022-12-18T06:10:41.835Z,9.35
2022-12-18T06:13:08.856Z,9.63
2022-12-18T06:15:38.538Z,8.43
2022-12-18T06:18:05.553Z,9.20
2022-12-18T06:20:33.859Z,10.00
2022-12-18T06:23:01.415Z,8.88
2022-12-18T06:25:28.548Z,9.50
2022-12-18T06:27:55.715Z,9.05
2022-12-18T06:30:22.795Z,9.30
2022-12-18T06:32:56.329Z,9.32
2022-12-18T06:35:24.130Z,9.68
2022-12-18T06:37:50.980Z,9.80
2022-12-18T06:40:18.043Z,9.55
2022-12-18T06:42:44.897Z,10.52
2022-12-18T06:45:20.793Z,10.00
2022-12-18T06:47:47.727Z,10.30
2022-12-18T06:50:14.949Z,10.70
2022-12-18T06:52:41.888Z,11.65
2022-12-18T06:55:11.620Z,11.80
2022-12-18T06:57:39.085Z,12.20
2022-12-18T07:00:07.341Z,11.52
2022-12-18T07:02:34.628Z,11.63
2022-12-18T07:05:04.901Z,11.65
2022-12-18T07:07:36.782Z,12.27
2022-12-18T07:10:04.124Z,10.63
2022-12-18T07:12:31.112Z,11.43
2022-12-18T07:14:57.888Z,11.43
2022-12-18T07:17:24.959Z,11.93
2022-12-18T07:19:51.790Z,12.18
2022-12-18T07:24:45.343Z,11.38
2022-12-18T07:29:38.859Z,12.23
2022-12-18T07:32:07.031Z,10.93
2022-12-18T07:34:34.348Z,12.35
2022-12-18T07:37:01.568Z,12.85
2022-12-18T07:39:28.907Z,12.15
2022-12-18T07:42:14.482Z,13.75
2022-12-18T07:44:42.140Z,13.30
2022-12-18T07:47:11.976Z,13.27
2022-12-18T07:49:39.417Z,14.43
2022-12-18T07:52:06.541Z,14.32
2022-12-18T07:54:33.605Z,12.30
2022-12-18T07:59:28.306Z,12.52
2022-12-18T08:01:55.337Z,13.95
2022-12-18T08:04:22.708Z,14.10
2022-12-18T08:11:44.455Z,15.25
2022-12-18T08:14:11.814Z,16.60
2022-12-18T08:16:38.675Z,14.88
2022-12-18T08:19:05.785Z,12.50
2022-12-18T08:24:02.320Z,14.70
2022-12-18T08:26:31.698Z,14.43
2022-12-18T08:29:01.049Z,16.58
2022-12-18T08:31:30.272Z,16.13
2022-12-18T08:33:58.528Z,15.80
2022-12-18T08:36:26.226Z,17.88
2022-12-18T08:38:54.646Z,17.23
2022-12-18T08:41:22.280Z,17.05
2022-12-18T08:44:08.436Z,21.35
2022-12-18T08:46:39.943Z,23.70
2022-12-18T08:49:08.707Z,25.73
2022-12-18T08:51:36.692Z,26.00
2022-12-18T08:54:05.094Z,24.20
2022-12-18T08:56:35.862Z,26.45
2022-12-18T08:59:03.493Z,25.20
2022-12-18T09:01:30.829Z,24.20
2022-12-18T09:03:58.617Z,23.60
2022-12-18T09:06:27.629Z,24.90
2022-12-18T09:08:54.510Z,24.90
2022-12-18T09:11:24.687Z,24.55
2022-12-18T09:15:28.080Z,28.85
2022-12-18T09:17:55.010Z,32.70
2022-12-18T09:20:21.852Z,31.13
2022-12-18T09:22:48.680Z,31.10
2022-12-18T09:25:15.573Z,32.20
2022-12-18T09:27:42.504Z,28.15
2022-12-18T09:30:10.013Z,32.38
2022-12-18T09:36:19.319Z,33.83
2022-12-18T09:39:12.749Z,34.30
2022-12-18T09:41:55.971Z,31.48
2022-12-18T09:44:30.889Z,30.85
2022-12-18T09:47:26.476Z,29.63
2022-12-18T09:49:57.954Z,27.83
2022-12-18T09:52:46.506Z,28.83
2022-12-18T09:55:37.636Z,27.23
2022-12-18T09:58:18.047Z,28.08
2022-12-18T10:00:44.935Z,28.00
2022-12-18T10:03:15.736Z,27.70
2022-12-18T10:05:46.747Z,27.98
2022-12-18T10:08:34.944Z,28.52
2022-12-18T10:11:16.952Z,31.48
2022-12-18T10:13:51.042Z,27.58
2022-12-18T10:16:26.393Z,26.25
2022-12-18T10:19:12.921Z,26.02
2022-12-18T10:22:17.988Z,26.10
2022-12-18T10:24:51.239Z,26.83
2022-12-18T10:27:23.501Z,27.33
2022-12-18T10:29:50.772Z,20.90
2022-12-18T10:32:21.921Z,26.42
2022-12-18T10:34:55.361Z,22.50
2022-12-18T10:37:29.745Z,21.55
2022-12-18T10:40:22.356Z,25.63
2022-12-18T10:43:05.220Z,25.02
2022-12-18T10:45:32.232Z,26.13
2022-12-18T10:47:59.745Z,24.90
2022-12-18T10:51:14.170Z,25.25
2022-12-18T10:53:38.416Z,25.60
2022-12-18T10:56:07.304Z,25.38
2022-12-18T10:58:36.999Z,25.33
2022-12-18T11:01:11.863Z,27.35
2022-12-18T11:03:40.745Z,24.45
2022-12-18T11:06:10.548Z,25.40
2022-12-18T11:08:38.244Z,26.00
2022-12-18T11:11:16.031Z,26.85
2022-12-18T11:13:54.171Z,26.00
2022-12-18T11:16:21.614Z,28.00
2022-12-18T11:18:48.677Z,26.33
2022-12-18T11:21:15.980Z,26.58
2022-12-18T11:23:52.763Z,28.13
2022-12-18T11:26:20.031Z,25.70
2022-12-18T11:29:10.968Z,26.02
2022-12-18T11:31:38.700Z,23.50
2022-12-18T11:34:29.980Z,26.02
2022-12-18T11:37:00.725Z,24.17
2022-12-18T11:39:49.906Z,24.52
2022-12-18T11:42:29.616Z,24.20
2022-12-18T11:45:14.882Z,25.55
2022-12-18T11:48:03.261Z,25.02
2022-12-18T11:50:51.260Z,24.30
2022-12-18T11:53:19.078Z,25.42
2022-12-18T11:55:54.474Z,26.45
2022-12-18T11:58:58.709Z,27.20
2022-12-18T12:01:52.672Z,24.05
2022-12-18T12:04:22.583Z,26.38
2022-12-18T12:07:14.964Z,26.45
2022-12-18T12:09:51.932Z,25.25
2022-12-18T12:13:03.990Z,23.10
2022-12-18T12:15:46.713Z,22.25
2022-12-18T12:18:53.620Z,21.88
2022-12-18T12:21:43.558Z,22.48
2022-12-18T12:24:32.010Z,21.10
2022-12-18T12:27:33.659Z,21.77
2022-12-18T12:30:08.936Z,21.50
2022-12-18T12:32:43.073Z,21.48
2022-12-18T12:35:23.875Z,21.95
2022-12-18T12:38:17.104Z,21.65
2022-12-18T12:41:03.465Z,21.30
2022-12-18T12:43:50.987Z,21.75
2022-12-18T12:48:59.314Z,21.77
2022-12-18T12:51:27.643Z,22.60
2022-12-18T12:53:57.482Z,24.88
2022-12-18T12:56:31.564Z,26.90
2022-12-18T12:59:12.567Z,22.58
2022-12-18T13:02:02.920Z,24.05
2022-12-18T13:04:50.572Z,23.77
2022-12-18T13:07:29.988Z,24.63
2022-12-18T13:10:27.110Z,22.10
2022-12-18T13:12:56.847Z,23.10
2022-12-18T13:15:26.489Z,22.60
2022-12-18T13:18:11.503Z,22.90
2022-12-18T13:20:52.439Z,23.38
2022-12-18T13:23:25.300Z,20.73
2022-12-18T13:25:53.686Z,22.33
2022-12-18T13:28:39.157Z,20.45
2022-12-18T13:31:06.016Z,22.10
2022-12-18T13:34:09.367Z,20.52
2022-12-18T13:36:35.157Z,23.48
2022-12-18T13:39:17.392Z,23.10
2022-12-18T13:41:48.926Z,23.10
2022-12-18T13:44:40.595Z,23.73
2022-12-18T13:47:34.724Z,23.60
2022-12-18T13:50:11.460Z,21.42
2022-12-18T13:55:16.188Z,22.85
2022-12-18T13:57:43.061Z,22.48
2022-12-18T14:00:25.581Z,23.60
2022-12-18T14:02:53.513Z,25.42
2022-12-18T14:05:38.729Z,27.05
2022-12-18T14:08:11.475Z,25.30
2022-12-18T14:10:48.268Z,25.48
2022-12-18T14:13:30.371Z,25.30
2022-12-18T14:15:59.532Z,25.45
2022-12-18T14:18:40.859Z,24.67
2022-12-18T14:21:08.129Z,27.27
2022-12-18T14:23:41.368Z,29.60
2022-12-18T14:26:29.939Z,27.20
2022-12-18T14:28:59.075Z,25.13
2022-12-18T14:31:28.246Z,26.17
2022-12-18T14:33:55.374Z,24.40
2022-12-18T14:36:24.785Z,24.92
2022-12-18T14:38:57.314Z,24.77
2022-12-18T14:41:25.395Z,23.63
2022-12-18T14:43:54.874Z,23.73
2022-12-18T14:46:35.828Z,24.42
2022-12-18T14:49:22.708Z,24.60
2022-12-18T14:51:53.585Z,25.73
2022-12-18T14:54:28.517Z,25.23
2022-12-18T14:57:07.360Z,24.00
2022-12-18T14:59:34.653Z,25.00
2022-12-18T15:02:24.734Z,25.25
2022-12-18T15:05:14.473Z,23.40
2022-12-18T15:07:53.318Z,23.67
2022-12-18T15:10:31.333Z,24.50
2022-12-18T15:12:58.141Z,24.83
2022-12-18T15:15:37.143Z,23.55
2022-12-18T15:18:17.900Z,23.13
2022-12-18T15:20:49.795Z,23.23
2022-12-18T15:23:24.738Z,22.33
2022-12-18T15:26:03.531Z,22.70
2022-12-18T15:28:37.809Z,22.52
2022-12-18T15:31:27.879Z,23.40
2022-12-18T15:33:54.824Z,24.80
2022-12-18T15:36:26.885Z,26.08
2022-12-18T15:39:04.688Z,26.30
2022-12-18T15:41:36.195Z,23.55
2022-12-18T15:44:04.726Z,24.65
2022-12-18T15:46:32.304Z,23.75
2022-12-18T15:49:02.792Z,22.90
2022-12-18T15:51:38.511Z,23.42
2022-12-18T15:54:10.869Z,21.67
2022-12-18T15:56:57.169Z,24.45
2022-12-18T15:59:25.655Z,22.50
2022-12-18T16:01:56.562Z,21.33
2022-12-18T16:04:24.879Z,21.08
2022-12-18T16:12:12.562Z,23.30
2022-12-18T16:14:40.842Z,23.05
2022-12-18T16:17:13.168Z,22.85
2022-12-18T16:19:44.138Z,21.58
2022-12-18T16:22:29.058Z,23.42
2022-12-18T16:24:57.414Z,22.45
2022-12-18T16:27:27.810Z,20.75
2022-12-18T16:29:55.633Z,20.90
2022-12-18T16:32:23.702Z,19.02
2022-12-18T16:34:52.544Z,21.17
2022-12-18T16:37:21.441Z,22.60
2022-12-18T16:39:48.549Z,21.60
2022-12-18T16:42:21.627Z,21.30
2022-12-18T16:44:51.241Z,19.80
2022-12-18T16:47:18.823Z,19.52
2022-12-18T16:49:46.498Z,19.17
2022-12-18T16:52:16.504Z,19.75
2022-12-18T16:54:46.756Z,18.92
2022-12-18T16:57:16.282Z,18.90
2022-12-18T16:59:44.000Z,17.90
2022-12-18T17:02:23.900Z,19.05
2022-12-18T17:04:57.464Z,15.45
2022-12-18T17:07:26.334Z,17.20
2022-12-18T17:09:54.405Z,17.35
2022-12-18T17:12:25.089Z,18.77
2022-12-18T17:14:52.912Z,23.45
2022-12-18T17:17:23.281Z,21.70
2022-12-18T17:19:55.171Z,22.00
2022-12-18T17:22:23.670Z,22.45
2022-12-18T17:24:52.899Z,19.90
2022-12-18T17:27:21.475Z,16.60
2022-12-18T17:29:49.155Z,15.52
2022-12-18T17:32:18.220Z,15.38
2022-12-18T17:34:45.315Z,15.65
2022-12-18T17:37:15.538Z,15.63
2022-12-18T17:39:43.593Z,15.70
2022-12-18T17:42:15.520Z,16.40
2022-12-18T17:44:45.265Z,14.98
2022-12-18T17:47:15.774Z,15.68
2022-12-18T17:49:45.542Z,17.23
2022-12-18T17:52:14.853Z,17.05
2022-12-18T17:54:47.035Z,16.13
2022-12-18T17:57:16.660Z,15.70
2022-12-18T17:59:43.883Z,16.98
2022-12-18T18:02:12.333Z,16.52
2022-12-18T18:04:40.039Z,16.38
2022-12-18T18:07:07.731Z,17.83
2022-12-18T18:09:34.540Z,16.90
2022-12-18T18:12:20.825Z,17.13
2022-12-18T18:14:48.019Z,17.63
2022-12-18T18:17:14.978Z,17.05
2022-12-18T18:19:42.279Z,11.32
2022-12-18T18:22:11.090Z,15.77
2022-12-18T18:24:40.873Z,15.88
2022-12-18T18:27:08.153Z,16.40
2022-12-18T18:29:35.098Z,17.88
2022-12-18T18:32:02.264Z,19.98
2022-12-18T18:34:31.181Z,20.30
2022-12-18T18:37:00.822Z,21.45
2022-12-18T18:39:27.788Z,20.15
2022-12-18T18:41:54.706Z,19.83
2022-12-18T18:44:25.687Z,18.63
2022-12-18T18:46:57.639Z,18.73
2022-12-18T18:49:27.543Z,17.65
2022-12-18T18:51:56.422Z,18.30
2022-12-18T18:54:23.765Z,18.83
2022-12-18T18:59:39.160Z,18.23
2022-12-18T19:02:06.706Z,15.40
2022-12-18T19:04:34.507Z,17.63
2022-12-18T19:07:02.071Z,18.15
2022-12-18T19:09:29.552Z,20.80
2022-12-18T19:12:15.295Z,19.20
2022-12-18T19:14:43.174Z,20.65
2022-12-18T19:17:10.503Z,19.45
2022-12-18T19:19:37.776Z,18.92
2022-12-18T19:22:07.673Z,18.95
2022-12-18T19:24:35.752Z,19.60
2022-12-18T19:27:02.822Z,18.83
2022-12-18T19:29:29.996Z,19.30
2022-12-18T19:34:24.200Z,18.10
2022-12-18T19:36:56.552Z,19.33
2022-12-18T19:39:27.006Z,19.88
2022-12-18T19:41:53.808Z,19.25
2022-12-18T19:44:21.372Z,19.23
2022-12-18T19:49:18.164Z,19.10
2022-12-18T19:51:45.711Z,18.85
2022-12-18T19:54:17.125Z,18.73
2022-12-18T19:56:45.755Z,19.33
2022-12-18T19:59:12.872Z,20.40
2022-12-18T20:01:40.397Z,20.05
2022-12-18T20:04:07.463Z,19.15
2022-12-18T20:06:46.013Z,19.58
2022-12-18T20:09:13.131Z,18.80
2022-12-18T20:11:41.847Z,19.02
2022-12-18T20:14:10.803Z,20.25
2022-12-18T20:16:38.329Z,20.15
2022-12-18T20:19:05.892Z,18.13
2022-12-18T20:21:33.392Z,19.08
2022-12-18T20:24:01.351Z,20.45
2022-12-18T20:26:28.503Z,21.08
2022-12-18T20:28:56.277Z,20.33
2022-12-18T20:31:24.128Z,21.58
2022-12-18T20:33:52.229Z,21.08
2022-12-18T20:36:23.457Z,20.65
2022-12-18T20:38:55.789Z,19.67
2022-12-18T20:41:25.277Z,20.20
2022-12-18T20:43:52.168Z,20.65
2022-12-18T20:46:19.438Z,17.70
2022-12-18T20:48:47.855Z,21.75
2022-12-18T20:51:17.686Z,20.77
2022-12-18T20:53:45.688Z,18.77
2022-12-18T20:56:21.640Z,20.92
2022-12-18T20:58:50.483Z,18.55
2022-12-18T21:01:22.468Z,20.45
2022-12-18T21:03:50.151Z,17.02
2022-12-18T21:06:18.823Z,18.77
2022-12-18T21:08:45.944Z,20.15
2022-12-18T21:11:39.706Z,19.13
2022-12-18T21:14:09.521Z,19.92
2022-12-18T21:16:36.630Z,18.08
2022-12-18T21:19:03.937Z,18.90
2022-12-18T21:21:32.457Z,19.27
2022-12-18T21:24:06.223Z,19.95
2022-12-18T21:26:33.542Z,18.92
2022-12-18T21:29:03.435Z,19.70
2022-12-18T21:31:33.247Z,18.75
2022-12-18T21:34:02.154Z,20.02
2022-12-18T21:36:31.322Z,19.58
2022-12-18T21:39:00.336Z,20.98
2022-12-18T21:41:47.202Z,20.45
2022-12-18T21:44:17.797Z,21.20
2022-12-18T21:46:51.505Z,22.38
2022-12-18T21:49:23.865Z,21.98
2022-12-18T21:51:53.018Z,21.38
2022-12-18T21:54:20.979Z,22.35
2022-12-18T21:56:52.355Z,21.95
2022-12-18T21:59:32.300Z,22.45
2022-12-18T22:02:02.240Z,23.17
2022-12-18T22:04:29.306Z,22.38
2022-12-18T22:06:57.035Z,23.90
2022-12-18T22:09:26.944Z,23.15
2022-12-18T22:11:54.496Z,25.77
2022-12-18T22:14:22.225Z,23.95
2022-12-18T22:16:50.931Z,24.98
2022-12-18T22:19:19.681Z,25.10
2022-12-18T22:21:49.197Z,25.55
2022-12-18T22:24:22.133Z,28.58
2022-12-18T22:26:51.483Z,28.75
2022-12-18T22:29:39.994Z,28.27
2022-12-18T22:32:09.231Z,26.35
2022-12-18T22:34:38.753Z,25.80
2022-12-18T22:37:06.149Z,24.30
2022-12-18T22:39:33.395Z,23.38
2022-12-18T22:42:00.568Z,25.65
2022-12-18T22:44:28.089Z,23.80
2022-12-18T22:47:06.753Z,23.48
2022-12-18T22:49:35.701Z,24.20
2022-12-18T22:52:09.429Z,23.00
2022-12-18T22:54:36.862Z,22.70
2022-12-18T22:57:04.081Z,23.98
2022-12-18T22:59:30.916Z,22.27
2022-12-18T23:01:58.999Z,24.60
2022-12-18T23:04:36.284Z,22.20
2022-12-18T23:07:05.364Z,24.08
2022-12-18T23:09:32.837Z,22.93
2022-12-18T23:12:00.138Z,22.20
2022-12-18T23:14:27.681Z,23.33
2022-12-18T23:16:54.529Z,23.70
2022-12-18T23:19:23.579Z,24.50
2022-12-18T23:21:51.546Z,21.37
2022-12-18T23:24:18.617Z,21.30
2022-12-18T23:26:45.483Z,25.27
2022-12-18T23:29:12.291Z,25.33
2022-12-18T23:31:40.167Z,26.07
2022-12-18T23:34:08.166Z,28.07
2022-12-18T23:36:46.022Z,29.03
2022-12-18T23:39:15.406Z,30.97
2022-12-18T23:41:57.476Z,28.80
2022-12-18T23:44:24.383Z,31.83
2022-12-18T23:46:51.417Z,32.77
2022-12-18T23:49:18.551Z,35.00
2022-12-18T23:51:45.356Z,32.77
2022-12-18T23:56:39.109Z,26.53
2022-12-18T23:59:05.935Z,26.37
